Terminal Aerodrome Forecast
Issued by NWS

Home | Current Version | Previous Version | Text Only | Print | Product List | Glossary On
Versions: 1 2 3 4 5 6 7 8 9 10 11 12 13 14 15 16 17 18 19 20 21 22 23 24 25
000
FTUS43 KGRB 241135
TAFRHI
TAF
KRHI 241135Z 2412/2512 31005KT P6SM OVC006
      TEMPO 2412/2415 3SM BR BKN003
     FM241800 VRB03KT P6SM OVC012
     FM250400 06004KT 2SM -FZDZ BR OVC005
      TEMPO 2504/2507 2SM -FZDZ BR
     FM251000 05005KT 2SM -SN OVC005=

USA.gov is the U.S. government's official web portal to all federal, state and local government web resources and services.